Pagrindinis puslapis
METAR-TAF:

METAR-TAF

Oro uostai :

Groote Eylandt, Australija

platuma: 13-58-30S, ilguma: 136-27-36E, Aukštis: 16 m

Dabartinis oras

Ataskaita buvo paskelbta 46 minutes, ne 04:00 UTC
Vėjas 9 kt iš Vakarų/Šiaurės Vakarų
Temperatūra 33°C
Drėgmė 63%
Slėgis 1006 hPa
Matomumas 10 km arba daugiau
Išsisklaidę debesys ne aukštis 3100 ft

METAR: YGTE 290400Z AUTO 29009KT 9999 // SCT031 33/25 Q1006

Laikas: 14:16 (04:46 UTC)


TAF: trūkstamas

Orai ataskaitas ir orų prognozės (METAR, TAF).

turimą stotys yra geltonos ir raudonos taškus žemėlapyje.

Perkelti pele per norėdami pamatyti stoties vardą.

Tada spustelėkite, norėdami matyti oro stebėjimo ir prognozės.

Norėdami pakeisti žemėlapį: spustelėkite ant žalios mygtukų su juodo kryžiaus žemyn,; žalią mygtuką su brūkšneliu, jei norite nutolinti; arba žalių rodyklių gretimoms žemėlapius.


METAR-TAF: